createdAt,value
2022-10-31T00:01:45.297Z,10.58
2022-10-31T00:04:13.628Z,10.56
2022-10-31T00:06:41.864Z,10.55
2022-10-31T00:09:11.081Z,10.55
2022-10-31T00:11:39.275Z,10.55
2022-10-31T00:14:07.603Z,10.55
2022-10-31T00:16:35.913Z,10.55
2022-10-31T00:19:07.444Z,10.53
2022-10-31T00:21:36.602Z,10.52
2022-10-31T00:24:05.751Z,10.51
2022-10-31T00:26:34.378Z,10.50
2022-10-31T00:29:03.042Z,10.48
2022-10-31T00:31:31.396Z,10.44
2022-10-31T00:33:59.749Z,10.42
2022-10-31T00:36:28.053Z,10.42
2022-10-31T00:38:56.543Z,10.42
2022-10-31T00:41:24.982Z,10.39
2022-10-31T00:43:53.279Z,10.35
2022-10-31T00:46:21.565Z,10.32
2022-10-31T00:48:49.750Z,10.30
2022-10-31T00:51:18.013Z,10.26
2022-10-31T00:53:46.272Z,10.22
2022-10-31T00:56:14.509Z,10.19
2022-10-31T00:58:42.736Z,10.16
2022-10-31T01:01:11.208Z,10.14
2022-10-31T01:03:39.842Z,10.14
2022-10-31T01:06:14.170Z,10.14
2022-10-31T01:08:43.182Z,10.14
2022-10-31T01:11:29.742Z,10.13
2022-10-31T01:13:58.313Z,10.13
2022-10-31T01:16:28.158Z,10.13
2022-10-31T01:18:56.848Z,10.10
2022-10-31T01:21:29.195Z,10.08
2022-10-31T01:23:57.611Z,10.05
2022-10-31T01:26:28.787Z,10.01
2022-10-31T01:29:07.913Z,9.97
2022-10-31T01:31:40.071Z,9.93
2022-10-31T01:34:08.395Z,9.91
2022-10-31T01:36:40.614Z,9.89
2022-10-31T01:39:13.799Z,9.86
2022-10-31T01:41:49.121Z,9.84
2022-10-31T01:44:17.513Z,9.83
2022-10-31T01:46:56.675Z,9.80
2022-10-31T01:49:35.095Z,9.77
2022-10-31T01:52:24.002Z,9.73
2022-10-31T01:54:59.168Z,9.69
2022-10-31T01:57:29.406Z,9.66
2022-10-31T02:00:04.629Z,9.63
2022-10-31T02:02:33.105Z,9.60
2022-10-31T02:05:07.468Z,9.59
2022-10-31T02:07:54.294Z,9.57
2022-10-31T02:10:24.137Z,9.54
2022-10-31T02:12:56.255Z,9.51
2022-10-31T02:15:25.137Z,9.50
2022-10-31T02:17:53.705Z,9.49
2022-10-31T02:20:26.673Z,9.46
2022-10-31T02:23:50.367Z,9.45
2022-10-31T02:26:38.184Z,9.42
2022-10-31T02:29:24.878Z,9.40
2022-10-31T02:32:11.509Z,9.39
2022-10-31T02:35:30.909Z,9.38
2022-10-31T02:38:17.589Z,9.35
2022-10-31T02:41:02.773Z,9.34
2022-10-31T02:43:55.653Z,9.33
2022-10-31T02:46:35.236Z,9.29
2022-10-31T02:49:22.487Z,9.27
2022-10-31T02:51:51.740Z,9.25
2022-10-31T02:54:26.305Z,9.23
2022-10-31T02:57:04.291Z,9.21
2022-10-31T02:59:36.605Z,9.21
2022-10-31T03:02:26.367Z,9.20
2022-10-31T03:05:15.798Z,9.19
2022-10-31T03:08:04.110Z,9.19
2022-10-31T03:10:52.515Z,9.18
2022-10-31T03:13:49.477Z,9.18
2022-10-31T03:16:40.891Z,9.16
2022-10-31T03:19:13.598Z,9.14
2022-10-31T03:21:50.549Z,9.11
2022-10-31T03:24:21.948Z,9.09
2022-10-31T03:26:54.566Z,9.08
2022-10-31T03:29:28.631Z,9.05
2022-10-31T03:32:02.816Z,9.01
2022-10-31T03:34:32.833Z,8.97
2022-10-31T03:37:05.940Z,8.93
2022-10-31T03:39:35.415Z,8.90
2022-10-31T03:42:09.951Z,8.88
2022-10-31T03:44:41.991Z,8.88
2022-10-31T03:47:10.351Z,8.86
2022-10-31T03:49:40.082Z,8.87
2022-10-31T03:52:40.991Z,8.86
2022-10-31T03:55:19.299Z,8.84
2022-10-31T03:58:12.124Z,8.82
2022-10-31T04:00:44.323Z,8.79
2022-10-31T04:03:23.221Z,8.76
2022-10-31T04:05:55.132Z,8.76
2022-10-31T04:08:29.306Z,8.76
2022-10-31T04:11:00.141Z,8.76
2022-10-31T04:13:32.468Z,8.76
2022-10-31T04:16:00.771Z,8.75
2022-10-31T04:18:29.641Z,8.75
2022-10-31T04:21:04.227Z,8.72
2022-10-31T04:23:34.060Z,8.68
2022-10-31T04:26:02.591Z,8.64
2022-10-31T04:28:30.921Z,8.59
2022-10-31T04:30:59.147Z,8.55
2022-10-31T04:33:27.407Z,8.52
2022-10-31T04:35:55.633Z,8.49
2022-10-31T04:38:24.002Z,8.45
2022-10-31T04:40:53.397Z,8.42
2022-10-31T04:43:21.691Z,8.39
2022-10-31T04:45:50.104Z,8.36
2022-10-31T04:48:18.558Z,8.35
2022-10-31T04:50:46.840Z,8.34
2022-10-31T04:53:15.350Z,8.31
2022-10-31T04:55:43.685Z,8.29
2022-10-31T04:58:11.988Z,8.28
2022-10-31T05:00:40.262Z,8.27
2022-10-31T05:03:08.588Z,8.26
2022-10-31T05:05:36.906Z,8.24
2022-10-31T05:08:05.485Z,8.23
2022-10-31T05:10:33.811Z,8.22
2022-10-31T05:13:04.791Z,8.20
2022-10-31T05:15:33.785Z,8.19
2022-10-31T05:18:03.322Z,8.18
2022-10-31T05:20:32.421Z,8.18
2022-10-31T05:23:01.493Z,8.17
2022-10-31T05:25:30.587Z,8.16
2022-10-31T05:27:59.216Z,8.15
2022-10-31T05:30:31.166Z,8.15
2022-10-31T05:33:00.594Z,8.14
2022-10-31T05:35:32.587Z,8.12
2022-10-31T05:38:01.062Z,8.11
2022-10-31T05:40:29.567Z,8.10
2022-10-31T05:43:01.202Z,8.11
2022-10-31T05:45:29.629Z,8.10
2022-10-31T05:48:01.401Z,8.11
2022-10-31T05:50:32.520Z,8.11
2022-10-31T05:53:04.120Z,8.11
2022-10-31T05:55:33.338Z,8.12
2022-10-31T05:58:01.973Z,8.13
2022-10-31T06:00:30.562Z,8.14
2022-10-31T06:03:04.623Z,8.16
2022-10-31T06:05:34.079Z,8.17
2022-10-31T06:08:03.046Z,8.19
2022-10-31T06:10:31.873Z,8.20
2022-10-31T06:13:00.249Z,8.23
2022-10-31T06:15:28.717Z,8.27
2022-10-31T06:18:06.881Z,8.30
2022-10-31T06:20:35.302Z,8.34
2022-10-31T06:23:05.041Z,8.38
2022-10-31T06:25:36.307Z,8.43
2022-10-31T06:28:05.284Z,8.48
2022-10-31T06:30:33.894Z,8.54
2022-10-31T06:33:06.306Z,8.59
2022-10-31T06:35:34.799Z,8.66
2022-10-31T06:38:03.470Z,8.72
2022-10-31T06:40:32.093Z,8.79
2022-10-31T06:43:02.041Z,8.85
2022-10-31T06:45:30.512Z,8.94
2022-10-31T06:50:47.504Z,9.10
2022-10-31T06:53:15.967Z,9.18
2022-10-31T06:55:45.815Z,9.25
2022-10-31T06:58:14.130Z,9.34
2022-10-31T07:00:42.451Z,9.42
2022-10-31T07:03:14.169Z,9.50
2022-10-31T07:05:43.579Z,9.58
2022-10-31T07:08:14.652Z,9.65
2022-10-31T07:10:44.248Z,9.75
2022-10-31T07:13:15.433Z,9.83
2022-10-31T07:15:44.790Z,9.92
2022-10-31T07:18:13.676Z,10.02
2022-10-31T07:20:45.006Z,10.11
2022-10-31T07:23:14.103Z,10.20
2022-10-31T07:25:42.512Z,10.31
2022-10-31T07:28:12.393Z,10.42
2022-10-31T07:30:40.705Z,10.53
2022-10-31T07:33:09.623Z,10.63
2022-10-31T07:35:37.927Z,10.73
2022-10-31T07:38:15.985Z,10.84
2022-10-31T07:40:44.518Z,10.96
2022-10-31T07:43:14.580Z,11.08
2022-10-31T07:45:43.194Z,11.21
2022-10-31T07:48:11.686Z,11.34
2022-10-31T07:50:40.333Z,11.48
2022-10-31T07:53:13.857Z,11.65
2022-10-31T07:55:43.056Z,11.82
2022-10-31T07:58:15.300Z,11.99
2022-10-31T08:00:46.896Z,12.18
2022-10-31T08:03:19.248Z,12.36
2022-10-31T08:05:50.581Z,12.56
2022-10-31T08:08:18.844Z,12.76
2022-10-31T08:10:51.860Z,12.97
2022-10-31T08:13:20.244Z,13.18
2022-10-31T08:15:51.397Z,13.37
2022-10-31T08:18:19.892Z,13.58
2022-10-31T08:20:48.121Z,13.80
2022-10-31T08:23:17.015Z,14.04
2022-10-31T08:25:47.933Z,14.29
2022-10-31T08:28:16.314Z,14.56
2022-10-31T08:30:44.672Z,14.84
2022-10-31T08:33:19.365Z,15.12
2022-10-31T08:35:48.558Z,15.42
2022-10-31T08:38:16.954Z,15.71
2022-10-31T08:40:50.491Z,15.99
2022-10-31T08:43:20.035Z,16.28
2022-10-31T08:45:50.729Z,16.57
2022-10-31T08:48:19.006Z,16.86
2022-10-31T08:50:47.686Z,17.15
2022-10-31T08:53:19.492Z,17.47
2022-10-31T08:55:48.126Z,17.77
2022-10-31T08:58:21.060Z,18.07
2022-10-31T09:00:57.272Z,18.35
2022-10-31T09:03:28.839Z,18.58
2022-10-31T09:06:00.444Z,18.80
2022-10-31T09:08:31.471Z,19.03
2022-10-31T09:11:00.288Z,19.19
2022-10-31T09:13:28.602Z,19.31
2022-10-31T09:16:01.166Z,19.49
2022-10-31T09:18:29.456Z,19.68
2022-10-31T09:21:00.053Z,19.90
2022-10-31T09:23:29.270Z,20.13
2022-10-31T09:26:02.718Z,20.31
2022-10-31T09:28:32.770Z,20.37
2022-10-31T09:31:01.088Z,20.50
2022-10-31T09:33:29.365Z,20.70
2022-10-31T09:35:59.832Z,20.89
2022-10-31T09:38:28.073Z,21.05
2022-10-31T09:41:56.182Z,21.24
2022-10-31T09:45:00.043Z,21.39
2022-10-31T09:48:23.379Z,21.52
2022-10-31T09:51:01.757Z,21.70
2022-10-31T09:54:00.324Z,21.81
2022-10-31T09:56:31.471Z,21.88
2022-10-31T09:59:02.621Z,21.93
2022-10-31T10:02:14.389Z,22.01
2022-10-31T10:04:59.506Z,22.19
2022-10-31T10:07:53.251Z,22.39
2022-10-31T10:10:39.177Z,22.59
2022-10-31T10:13:32.005Z,22.81
2022-10-31T10:16:34.469Z,23.01
2022-10-31T10:19:24.069Z,23.15
2022-10-31T10:22:10.749Z,23.34
2022-10-31T10:25:45.504Z,23.51
2022-10-31T10:28:22.733Z,23.67
2022-10-31T10:31:08.968Z,23.89
2022-10-31T10:34:02.877Z,24.04
2022-10-31T10:36:42.399Z,24.16
2022-10-31T10:39:31.035Z,24.27
2022-10-31T10:42:19.113Z,24.35
2022-10-31T10:45:07.788Z,24.40
2022-10-31T10:47:59.248Z,24.43
2022-10-31T10:50:45.729Z,24.51
2022-10-31T10:53:38.582Z,24.66
2022-10-31T10:56:40.725Z,24.84
2022-10-31T10:59:17.207Z,24.93
2022-10-31T11:01:46.433Z,24.98
2022-10-31T11:04:36.498Z,24.98
2022-10-31T11:07:10.903Z,24.97
2022-10-31T11:09:39.323Z,25.04
2022-10-31T11:12:30.756Z,25.06
2022-10-31T11:15:06.712Z,25.08
2022-10-31T11:17:41.436Z,25.16
2022-10-31T11:20:16.298Z,25.18
2022-10-31T11:22:49.428Z,25.19
2022-10-31T11:25:20.435Z,25.23
2022-10-31T11:28:19.583Z,25.21
2022-10-31T11:31:00.207Z,25.23
2022-10-31T11:33:35.657Z,25.29
2022-10-31T11:36:19.254Z,25.41
2022-10-31T11:38:48.549Z,25.52
2022-10-31T11:41:33.719Z,25.55
2022-10-31T11:44:11.901Z,25.61
2022-10-31T11:46:53.648Z,25.66
2022-10-31T11:49:32.772Z,25.62
2022-10-31T11:52:09.088Z,25.59
2022-10-31T11:54:49.857Z,25.62
2022-10-31T11:57:45.437Z,25.68
2022-10-31T12:00:25.753Z,25.75
2022-10-31T12:03:23.863Z,25.80
2022-10-31T12:06:24.738Z,25.80
2022-10-31T12:08:53.221Z,25.80
2022-10-31T12:11:50.686Z,25.83
2022-10-31T12:14:52.961Z,25.90
2022-10-31T12:17:35.557Z,25.89
2022-10-31T12:21:09.371Z,25.95
2022-10-31T12:24:03.386Z,26.13
2022-10-31T12:27:08.113Z,26.22
2022-10-31T12:29:58.247Z,26.28
2022-10-31T12:32:59.181Z,26.39
2022-10-31T12:36:02.959Z,26.46
2022-10-31T12:38:47.763Z,26.50
2022-10-31T12:41:46.168Z,26.49
2022-10-31T12:44:39.953Z,26.45
2022-10-31T12:47:32.594Z,26.39
2022-10-31T12:51:02.843Z,26.33
2022-10-31T12:53:53.736Z,26.18
2022-10-31T12:56:34.009Z,26.04
2022-10-31T12:59:40.980Z,25.95
2022-10-31T13:02:32.998Z,25.74
2022-10-31T13:05:30.379Z,25.56
2022-10-31T13:08:12.566Z,25.39
2022-10-31T13:11:20.710Z,25.26
2022-10-31T13:13:57.121Z,25.22
2022-10-31T13:16:41.056Z,25.22
2022-10-31T13:19:19.166Z,25.22
2022-10-31T13:22:18.965Z,25.22
2022-10-31T13:25:02.967Z,25.18
2022-10-31T13:27:46.327Z,25.14
2022-10-31T13:30:29.581Z,25.13
2022-10-31T13:33:14.967Z,25.13
2022-10-31T13:35:54.528Z,25.11
2022-10-31T13:38:37.584Z,25.12
2022-10-31T13:41:43.076Z,25.22
2022-10-31T13:44:24.874Z,25.50
2022-10-31T13:46:56.490Z,25.70
2022-10-31T13:49:30.651Z,25.79
2022-10-31T13:52:14.252Z,25.86
2022-10-31T13:54:57.016Z,25.95
2022-10-31T13:57:45.438Z,26.03
2022-10-31T14:00:27.792Z,26.18
2022-10-31T14:02:58.567Z,26.43
2022-10-31T14:05:34.287Z,26.76
2022-10-31T14:08:07.409Z,27.11
2022-10-31T14:10:51.125Z,27.46
2022-10-31T14:13:38.369Z,27.74
2022-10-31T14:16:21.397Z,27.89
2022-10-31T14:18:59.953Z,27.93
2022-10-31T14:21:32.460Z,27.92
2022-10-31T14:24:00.731Z,27.94
2022-10-31T14:26:32.059Z,27.99
2022-10-31T14:29:15.204Z,28.08
2022-10-31T14:31:53.025Z,28.12
2022-10-31T14:34:35.966Z,28.07
2022-10-31T14:37:38.251Z,27.92
2022-10-31T14:40:23.750Z,27.68
2022-10-31T14:43:19.276Z,27.49
2022-10-31T14:46:26.948Z,27.29
2022-10-31T14:49:08.741Z,27.21
2022-10-31T14:51:45.364Z,27.12
2022-10-31T14:54:52.394Z,26.98
2022-10-31T14:57:33.385Z,26.77
2022-10-31T15:00:07.401Z,26.50
2022-10-31T15:02:51.586Z,26.17
2022-10-31T15:05:20.936Z,25.81
2022-10-31T15:07:57.350Z,25.47
2022-10-31T15:10:38.715Z,25.14
2022-10-31T15:13:18.151Z,24.76
2022-10-31T15:15:51.243Z,24.39
2022-10-31T15:18:25.808Z,24.04
2022-10-31T15:20:57.315Z,23.70
2022-10-31T15:23:29.151Z,23.35
2022-10-31T15:26:06.463Z,23.02
2022-10-31T15:28:34.740Z,22.69
2022-10-31T15:31:04.266Z,22.40
2022-10-31T15:33:46.951Z,22.12
2022-10-31T15:36:27.443Z,21.87
2022-10-31T15:38:58.741Z,21.60
2022-10-31T15:41:33.848Z,21.32
2022-10-31T15:44:18.833Z,21.05
2022-10-31T15:47:04.420Z,20.79
2022-10-31T15:49:50.651Z,20.53
2022-10-31T15:52:47.152Z,20.29
2022-10-31T15:55:21.632Z,20.04
2022-10-31T15:57:53.845Z,19.82
2022-10-31T16:00:35.055Z,19.62
2022-10-31T16:03:23.842Z,19.43
2022-10-31T16:05:56.097Z,19.23
2022-10-31T16:08:30.146Z,19.07
2022-10-31T16:11:13.659Z,18.88
2022-10-31T16:14:05.392Z,18.62
2022-10-31T16:16:41.159Z,18.40
2022-10-31T16:19:20.417Z,18.25
2022-10-31T16:21:54.032Z,18.11
2022-10-31T16:24:53.213Z,17.96
2022-10-31T16:27:29.632Z,17.84
2022-10-31T16:30:05.420Z,17.71
2022-10-31T16:32:54.987Z,17.59
2022-10-31T16:35:46.864Z,17.45
2022-10-31T16:38:15.881Z,17.31
2022-10-31T16:40:45.689Z,17.18
2022-10-31T16:43:18.430Z,17.07
2022-10-31T16:45:53.823Z,16.96
2022-10-31T16:48:24.226Z,16.85
2022-10-31T16:50:53.930Z,16.73
2022-10-31T16:53:22.619Z,16.60
2022-10-31T16:55:59.577Z,16.43
2022-10-31T16:58:34.120Z,16.27
2022-10-31T17:01:06.781Z,16.16
2022-10-31T17:03:36.417Z,16.06
2022-10-31T17:06:05.254Z,15.97
2022-10-31T17:08:34.133Z,15.88
2022-10-31T17:11:02.980Z,15.79
2022-10-31T17:13:35.157Z,15.70
2022-10-31T17:16:04.219Z,15.59
2022-10-31T17:18:32.702Z,15.45
2022-10-31T17:21:08.578Z,15.31
2022-10-31T17:23:38.286Z,15.19
2022-10-31T17:26:08.913Z,15.07
2022-10-31T17:28:37.537Z,14.98
2022-10-31T17:31:06.179Z,14.90
2022-10-31T17:33:34.552Z,14.85
2022-10-31T17:36:04.469Z,14.79
2022-10-31T17:38:33.035Z,14.73
2022-10-31T17:41:10.022Z,14.68
2022-10-31T17:43:42.255Z,14.60
2022-10-31T17:46:10.629Z,14.53
2022-10-31T17:48:39.811Z,14.47
2022-10-31T17:51:08.656Z,14.41
2022-10-31T17:53:37.227Z,14.34
2022-10-31T17:56:10.089Z,14.30
2022-10-31T17:58:39.173Z,14.24
2022-10-31T18:01:14.872Z,14.19
2022-10-31T18:03:44.359Z,14.13
2022-10-31T18:06:16.943Z,14.06
2022-10-31T18:08:46.445Z,14.02
2022-10-31T18:11:23.282Z,13.96
2022-10-31T18:13:57.857Z,13.88
2022-10-31T18:16:27.544Z,13.83
2022-10-31T18:19:02.073Z,13.77
2022-10-31T18:21:32.216Z,13.71
2022-10-31T18:24:02.912Z,13.66
2022-10-31T18:26:32.381Z,13.58
2022-10-31T18:29:01.179Z,13.51
2022-10-31T18:31:29.942Z,13.43
2022-10-31T18:33:58.516Z,13.33
2022-10-31T18:36:27.875Z,13.23
2022-10-31T18:38:56.444Z,13.15
2022-10-31T18:41:25.146Z,13.10
2022-10-31T18:43:59.116Z,13.03
2022-10-31T18:46:29.200Z,12.99
2022-10-31T18:48:57.858Z,12.95
2022-10-31T18:51:26.814Z,12.91
2022-10-31T18:53:59.112Z,12.85
2022-10-31T18:56:31.573Z,12.79
2022-10-31T18:59:02.476Z,12.73
2022-10-31T19:01:31.849Z,12.68
2022-10-31T19:04:01.423Z,12.64
2022-10-31T19:06:30.991Z,12.58
2022-10-31T19:09:09.067Z,12.54
2022-10-31T19:11:38.824Z,12.50
2022-10-31T19:14:08.629Z,12.47
2022-10-31T19:16:37.484Z,12.44
2022-10-31T19:19:06.359Z,12.41
2022-10-31T19:21:34.785Z,12.37
2022-10-31T19:24:03.552Z,12.33
2022-10-31T19:26:34.409Z,12.30
2022-10-31T19:29:03.316Z,12.26
2022-10-31T19:31:31.850Z,12.21
2022-10-31T19:34:00.263Z,12.18
2022-10-31T19:36:29.705Z,12.13
2022-10-31T19:38:58.203Z,12.04
2022-10-31T19:41:29.251Z,11.89
2022-10-31T19:44:01.037Z,11.80
2022-10-31T19:49:18.175Z,11.66
2022-10-31T19:51:46.707Z,11.61
2022-10-31T19:54:15.472Z,11.57
2022-10-31T19:56:44.371Z,11.54
2022-10-31T19:59:13.126Z,11.53
2022-10-31T20:01:41.925Z,11.51
2022-10-31T20:04:10.417Z,11.48
2022-10-31T20:06:41.003Z,11.46
2022-10-31T20:09:15.789Z,11.47
2022-10-31T20:11:45.973Z,11.47
2022-10-31T20:14:17.623Z,11.48
2022-10-31T20:16:46.437Z,11.47
2022-10-31T20:19:14.723Z,11.46
2022-10-31T20:21:43.217Z,11.42
2022-10-31T20:24:11.956Z,11.38
2022-10-31T20:26:41.927Z,11.34
2022-10-31T20:29:18.398Z,11.30
2022-10-31T20:31:47.385Z,11.26
2022-10-31T20:34:16.199Z,11.22
2022-10-31T20:36:44.641Z,11.19
2022-10-31T20:39:15.698Z,11.16
2022-10-31T20:41:44.048Z,11.13
2022-10-31T20:44:12.512Z,11.09
2022-10-31T20:46:40.732Z,11.07
2022-10-31T20:49:09.013Z,11.04
2022-10-31T20:51:37.254Z,11.00
2022-10-31T20:54:06.846Z,10.97
2022-10-31T20:56:35.173Z,10.95
2022-10-31T20:59:03.506Z,10.93
2022-10-31T21:01:33.653Z,10.93
2022-10-31T21:04:04.386Z,10.93
2022-10-31T21:06:32.760Z,10.93
2022-10-31T21:09:01.062Z,10.92
2022-10-31T21:11:29.466Z,10.92
2022-10-31T21:13:59.447Z,10.92
2022-10-31T21:16:31.559Z,10.92
2022-10-31T21:19:01.027Z,10.92
2022-10-31T21:21:33.304Z,10.91
2022-10-31T21:24:06.847Z,10.90
2022-10-31T21:26:40.547Z,10.90
2022-10-31T21:29:10.629Z,10.88
2022-10-31T21:31:40.684Z,10.86
2022-10-31T21:34:09.626Z,10.84
2022-10-31T21:36:37.870Z,10.82
2022-10-31T21:39:08.632Z,10.80
2022-10-31T21:41:37.067Z,10.79
2022-10-31T21:44:05.712Z,10.78
2022-10-31T21:46:34.739Z,10.79
2022-10-31T21:49:04.058Z,10.79
2022-10-31T21:51:36.109Z,10.79
2022-10-31T21:54:23.544Z,10.79
2022-10-31T21:56:52.081Z,10.77
2022-10-31T21:59:21.023Z,10.77
2022-10-31T22:01:50.419Z,10.77
2022-10-31T22:04:19.676Z,10.77
2022-10-31T22:06:47.962Z,10.76
2022-10-31T22:09:17.416Z,10.76
2022-10-31T22:11:46.425Z,10.77
2022-10-31T22:14:15.876Z,10.78
2022-10-31T22:16:44.215Z,10.79
2022-10-31T22:19:14.381Z,10.79
2022-10-31T22:21:48.759Z,10.80
2022-10-31T22:24:18.409Z,10.81
2022-10-31T22:26:47.202Z,10.79
2022-10-31T22:29:19.618Z,10.77
2022-10-31T22:31:53.236Z,10.74
2022-10-31T22:34:25.445Z,10.69
2022-10-31T22:36:55.385Z,10.66
2022-10-31T22:39:23.692Z,10.61
2022-10-31T22:41:52.009Z,10.57
2022-10-31T22:44:20.226Z,10.53
2022-10-31T22:46:48.482Z,10.52
2022-10-31T22:49:16.727Z,10.53
2022-10-31T22:51:45.254Z,10.53
2022-10-31T22:54:17.563Z,10.52
2022-10-31T22:56:46.472Z,10.51
2022-10-31T22:59:16.736Z,10.50
2022-10-31T23:01:45.979Z,10.47
2022-10-31T23:04:16.678Z,10.45
2022-10-31T23:06:45.456Z,10.41
2022-10-31T23:09:16.480Z,10.38
2022-10-31T23:11:45.966Z,10.33
2022-10-31T23:14:21.029Z,10.26
2022-10-31T23:16:55.821Z,10.21
2022-10-31T23:19:29.787Z,10.15
2022-10-31T23:22:04.117Z,10.11
2022-10-31T23:24:38.660Z,10.08
2022-10-31T23:27:18.226Z,10.05
2022-10-31T23:29:52.857Z,10.03
2022-10-31T23:32:26.167Z,9.99
2022-10-31T23:35:08.327Z,9.97
2022-10-31T23:37:38.675Z,9.94
2022-10-31T23:40:10.810Z,9.93
2022-10-31T23:42:39.052Z,9.91
2022-10-31T23:45:08.635Z,9.90
2022-10-31T23:47:42.332Z,9.88
2022-10-31T23:50:11.658Z,9.87
2022-10-31T23:52:39.923Z,9.85
2022-10-31T23:55:08.406Z,9.84
2022-10-31T23:57:36.610Z,9.82
